Spokane, WA

5:36 PM PST on February 05, 2016 (GMT -0800)
Craig Rd / White Rd | | Change Station
CLOSE
Current Station
Personal Weather Station
Location: Medical Lake, WA
Elevation: 2405 ft
Nearby Weather Stations

Elev 2405 ft 47.58 °N, 117.62 °W | Updated 16 seconds ago

Mostly Cloudy
Mostly Cloudy
43.3 °F
Feels Like 36 °F
N
13.6
Wind Variable Wind from SE
Gusts 15.0 mph

Today
High -- | Low -- °F
--% Chance of Precip.
Yesterday
High -- | Low -- °F
Precip. -- in
Pressure 30.22 in
Visibility 10.0 miles
Clouds Few 8500 ft
Mostly Cloudy 11000 ft
Windchill 36 °F
Dew Point 37 °F
Humidity 77%
Rainfall 0.00 in
Snow Depth Not available.
7:12 AM 4:57 PM
Waning Crescent, 8% visible
METAR KSKA 060058Z COR 15011KT 10SM UP FEW085 BKN110 06/03 A3016 RMK AO2A SLP231 P0000 T00570027 COR 0100
Pressure 30.22 in
Visibility 10.0 miles
Clouds Few 8500 ft
Mostly Cloudy 11000 ft
Windchill 36 °F
Dew Point 37 °F
Humidity 77%
Rainfall 0.00 in
Snow Depth Not available.
7:12 AM 4:57 PM
Waning Crescent, 8% visible
METAR KSKA 060058Z COR 15011KT 10SM UP FEW085 BKN110 06/03 A3016 RMK AO2A SLP231 P0000 T00570027 COR 0100

10-Day Weather Forecast

Almanac

Astronomy

Feb. 05, 2016 Rise Set
Actual Time
Civil Twilight
Nautical Twilight
Astronomical Twilight
Moon
Length of Visible Light
Length of Day
Tomorrow will be .
, % of the Moon is Illuminated

Today's Extremes

State Highs State Lows

Community

WunderPhotos

Upload Photos

1,890,906 photos uploaded!

WunderBlog® & News

Nearby

Air Quality

  Air Quality AQ Index Pollutant
Not available.

Snow Depth

Station Depth Elevation

Earthquake Activity

City Distance Mag. Time & Date
Minimum magnitude displayed is 2.5.

Coastal Water Temperatures

Place Temperature

Stations

Nearby Weather Stations

Station Location Temp. Windchill Dew Point Humidity Wind Precip. Elev Updated Type
                   

Watches & Warnings

There are currently no watches in effect.